createdAt,value
2022-07-30T00:00:39.353Z,100129.06
2022-07-30T00:03:08.803Z,100120.34
2022-07-30T00:05:39.035Z,100114.91
2022-07-30T00:08:07.425Z,100124.25
2022-07-30T00:10:36.045Z,100120.59
2022-07-30T00:13:05.025Z,100117.94
2022-07-30T00:15:33.996Z,100115.28
2022-07-30T00:18:02.666Z,100110.94
2022-07-30T00:20:31.392Z,100103.09
2022-07-30T00:23:04.086Z,100105.63
2022-07-30T00:25:32.622Z,100102.47
2022-07-30T00:28:02.943Z,100112.38
2022-07-30T00:30:31.585Z,100106.13
2022-07-30T00:33:00.056Z,100101.03
2022-07-30T00:35:29.043Z,100100.66
2022-07-30T00:37:58.685Z,100103.94
2022-07-30T00:40:28.989Z,100099.31
2022-07-30T00:42:57.993Z,100098.25
2022-07-30T00:45:27.896Z,100094.19
2022-07-30T00:47:58.839Z,100086.06
2022-07-30T00:50:27.437Z,100081.34
2022-07-30T00:52:55.986Z,100072.91
2022-07-30T00:55:25.041Z,100054.38
2022-07-30T00:57:55.396Z,100063.91
2022-07-30T01:00:24.346Z,100054.00
2022-07-30T01:02:52.941Z,100054.94
2022-07-30T01:05:21.620Z,100050.25
2022-07-30T01:07:51.775Z,100050.88
2022-07-30T01:10:20.932Z,100033.28
2022-07-30T01:12:52.815Z,100046.91
2022-07-30T01:15:23.277Z,100036.06
2022-07-30T01:17:55.135Z,100034.97
2022-07-30T01:20:28.105Z,100036.78
2022-07-30T01:23:06.573Z,100034.97
2022-07-30T01:25:53.112Z,100027.84
2022-07-30T01:28:28.910Z,100032.91
2022-07-30T01:31:00.156Z,100029.16
2022-07-30T01:33:31.161Z,100035.22
2022-07-30T01:36:02.624Z,100024.50
2022-07-30T01:38:34.798Z,100018.94
2022-07-30T01:41:08.023Z,100010.97
2022-07-30T01:43:37.980Z,100002.16
2022-07-30T01:46:08.812Z,99995.88
2022-07-30T01:48:42.144Z,100001.91
2022-07-30T01:51:14.927Z,99995.19
2022-07-30T01:53:49.157Z,99988.69
2022-07-30T01:56:24.882Z,99984.34
2022-07-30T01:58:58.034Z,99965.59
2022-07-30T02:01:28.763Z,99966.44
2022-07-30T02:04:04.211Z,99971.06
2022-07-30T02:06:41.492Z,99970.09
2022-07-30T02:09:17.022Z,99969.22
2022-07-30T02:12:08.039Z,99956.91
2022-07-30T02:14:42.719Z,99970.69
2022-07-30T02:17:19.054Z,99965.47
2022-07-30T02:19:52.720Z,99965.59
2022-07-30T02:22:25.048Z,99962.09
2022-07-30T02:24:56.360Z,99968.13
2022-07-30T02:27:32.355Z,99971.06
2022-07-30T02:30:03.990Z,99981.19
2022-07-30T02:32:38.721Z,99976.94
2022-07-30T02:35:13.363Z,99977.81
2022-07-30T02:37:44.464Z,99974.06
2022-07-30T02:40:17.797Z,99974.16
2022-07-30T02:42:51.257Z,99972.50
2022-07-30T02:45:25.258Z,99971.75
2022-07-30T02:47:58.148Z,99983.56
2022-07-30T02:50:29.140Z,99985.97
2022-07-30T02:53:00.729Z,99994.75
2022-07-30T02:55:32.671Z,100001.84
2022-07-30T02:58:05.770Z,99994.72
2022-07-30T03:00:36.186Z,99986.94
2022-07-30T03:03:07.391Z,99986.56
2022-07-30T03:05:40.925Z,99970.91
2022-07-30T03:08:10.241Z,99971.88
2022-07-30T03:10:42.055Z,99965.81
2022-07-30T03:13:13.838Z,99973.28
2022-07-30T03:15:46.798Z,99973.00
2022-07-30T03:18:18.230Z,99971.03
2022-07-30T03:20:51.826Z,99976.78
2022-07-30T03:23:22.049Z,99977.00
2022-07-30T03:25:55.718Z,99974.59
2022-07-30T03:28:29.309Z,99987.19
2022-07-30T03:30:58.769Z,99991.69
2022-07-30T03:33:38.291Z,99996.97
2022-07-30T03:36:09.997Z,99985.41
2022-07-30T03:38:40.783Z,99995.56
2022-07-30T03:41:09.989Z,99984.72
2022-07-30T03:43:41.585Z,99987.16
2022-07-30T03:46:13.330Z,99989.81
2022-07-30T03:48:47.122Z,99990.88
2022-07-30T03:51:18.030Z,99980.41
2022-07-30T03:53:48.745Z,99975.09
2022-07-30T03:56:41.742Z,99968.22
2022-07-30T03:59:16.641Z,99969.16
2022-07-30T04:01:47.065Z,99967.47
2022-07-30T04:04:27.059Z,99973.63
2022-07-30T04:07:00.092Z,99977.34
2022-07-30T04:09:29.273Z,99977.66
2022-07-30T04:12:00.359Z,99970.69
2022-07-30T04:14:42.330Z,99959.09
2022-07-30T04:17:15.087Z,99958.38
2022-07-30T04:19:48.331Z,99959.56
2022-07-30T04:22:25.132Z,99958.84
2022-07-30T04:24:55.058Z,99956.19
2022-07-30T04:27:25.543Z,99950.66
2022-07-30T04:29:55.989Z,99949.69
2022-07-30T04:32:25.209Z,99949.25
2022-07-30T04:34:55.726Z,99952.22
2022-07-30T04:37:45.268Z,99947.03
2022-07-30T04:40:15.882Z,99952.22
2022-07-30T04:42:44.516Z,99956.47
2022-07-30T04:45:16.145Z,99943.19
2022-07-30T04:47:55.184Z,99950.94
2022-07-30T04:50:27.897Z,99953.59
2022-07-30T04:52:58.359Z,99948.19
2022-07-30T04:55:30.829Z,99950.72
2022-07-30T04:58:02.170Z,99950.47
2022-07-30T05:00:40.997Z,99959.59
2022-07-30T05:03:15.755Z,99962.63
2022-07-30T05:05:57.179Z,99955.28
2022-07-30T05:08:29.894Z,99958.31
2022-07-30T05:11:03.579Z,99957.25
2022-07-30T05:13:34.136Z,99953.41
2022-07-30T05:16:08.860Z,99958.53
2022-07-30T05:18:38.025Z,99953.94
2022-07-30T05:21:07.449Z,99958.06
2022-07-30T05:23:50.151Z,99951.06
2022-07-30T05:26:37.979Z,99950.31
2022-07-30T05:29:08.233Z,99941.28
2022-07-30T05:31:49.006Z,99937.31
2022-07-30T05:34:18.949Z,99941.44
2022-07-30T05:36:47.934Z,99945.66
2022-07-30T05:39:19.579Z,99949.91
2022-07-30T05:41:53.983Z,99941.94
2022-07-30T05:44:38.717Z,99949.66
2022-07-30T05:47:09.141Z,99956.06
2022-07-30T05:49:40.411Z,99940.16
2022-07-30T05:52:14.710Z,99955.00
2022-07-30T05:54:44.985Z,99955.25
2022-07-30T05:57:13.864Z,99950.78
2022-07-30T05:59:42.754Z,99948.00
2022-07-30T06:02:24.466Z,99945.13
2022-07-30T06:05:11.702Z,99945.94
2022-07-30T06:07:42.659Z,99948.50
2022-07-30T06:10:11.723Z,99941.25
2022-07-30T06:12:42.056Z,99936.91
2022-07-30T06:15:12.148Z,99933.44
2022-07-30T06:17:45.182Z,99925.31
2022-07-30T06:20:38.603Z,99912.56
2022-07-30T06:23:30.764Z,99906.41
2022-07-30T06:26:32.009Z,99898.06
2022-07-30T06:29:00.859Z,99909.06
2022-07-30T06:31:32.853Z,99910.50
2022-07-30T06:34:04.140Z,99911.84
2022-07-30T06:36:38.422Z,99902.56
2022-07-30T06:39:13.761Z,99904.34
2022-07-30T06:41:55.585Z,99913.31
2022-07-30T06:44:24.080Z,99914.28
2022-07-30T06:47:12.940Z,99919.09
2022-07-30T06:49:45.084Z,99918.59
2022-07-30T06:52:18.525Z,99914.63
2022-07-30T06:54:52.197Z,99904.34
2022-07-30T06:57:42.365Z,99890.69
2022-07-30T07:00:28.059Z,99891.28
2022-07-30T07:02:58.217Z,99884.28
2022-07-30T07:05:38.033Z,99890.19
2022-07-30T07:08:08.130Z,99886.31
2022-07-30T07:10:43.371Z,99884.13
2022-07-30T07:13:16.757Z,99879.72
2022-07-30T07:15:46.668Z,99877.66
2022-07-30T07:18:20.611Z,99880.53
2022-07-30T07:20:56.305Z,99886.06
2022-07-30T07:23:25.613Z,99887.25
2022-07-30T07:26:32.746Z,99878.97
2022-07-30T07:29:05.265Z,99892.25
2022-07-30T07:32:06.804Z,99893.78
2022-07-30T07:34:25.041Z,99905.84
2022-07-30T07:36:57.205Z,99906.41
2022-07-30T07:39:26.006Z,99903.19
2022-07-30T07:41:54.704Z,99909.63
2022-07-30T07:44:25.777Z,99908.31
2022-07-30T07:46:54.629Z,99909.53
2022-07-30T07:49:27.834Z,99901.81
2022-07-30T07:51:58.178Z,99906.03
2022-07-30T07:54:27.820Z,99912.19
2022-07-30T07:56:57.314Z,99915.00
2022-07-30T07:59:40.589Z,99922.84
2022-07-30T08:02:21.130Z,99928.16
2022-07-30T08:04:52.623Z,99920.44
2022-07-30T08:07:41.190Z,99917.19
2022-07-30T08:10:25.104Z,99916.63
2022-07-30T08:13:49.512Z,99903.97
2022-07-30T08:16:24.056Z,99903.31
2022-07-30T08:19:31.993Z,99898.34
2022-07-30T08:22:14.675Z,99894.28
2022-07-30T08:24:45.306Z,99900.78
2022-07-30T08:27:14.081Z,99904.69
2022-07-30T08:29:44.316Z,99895.25
2022-07-30T08:32:13.157Z,99895.25
2022-07-30T08:34:43.213Z,99890.91
2022-07-30T08:37:14.127Z,99904.22
2022-07-30T08:39:44.816Z,99898.03
2022-07-30T08:42:17.141Z,99894.53
2022-07-30T08:44:46.819Z,99899.16
2022-07-30T08:47:19.627Z,99900.13
2022-07-30T08:50:09.249Z,99897.19
2022-07-30T08:52:46.785Z,99906.88
2022-07-30T08:55:17.807Z,99899.16
2022-07-30T08:57:47.202Z,99898.91
2022-07-30T09:00:18.582Z,99897.59
2022-07-30T09:02:47.452Z,99896.72
2022-07-30T09:05:16.361Z,99890.69
2022-07-30T09:07:45.079Z,99896.25
2022-07-30T09:10:25.144Z,99885.16
2022-07-30T09:12:54.434Z,99878.28
2022-07-30T09:15:23.898Z,99865.38
2022-07-30T09:17:57.001Z,99854.28
2022-07-30T09:20:37.615Z,99848.25
2022-07-30T09:23:12.204Z,99853.09
2022-07-30T09:26:12.008Z,99854.91
2022-07-30T09:29:17.644Z,99853.34
2022-07-30T09:32:07.094Z,99850.44
2022-07-30T09:35:09.510Z,99856.94
2022-07-30T09:38:06.018Z,99847.72
2022-07-30T09:40:57.209Z,99848.78
2022-07-30T09:43:50.615Z,99836.66
2022-07-30T09:46:45.310Z,99832.41
2022-07-30T09:49:18.576Z,99835.53
2022-07-30T09:52:06.551Z,99830.78
2022-07-30T09:54:52.436Z,99832.13
2022-07-30T10:00:25.053Z,99826.91
2022-07-30T10:03:21.985Z,99823.72
2022-07-30T10:06:38.254Z,99827.03
2022-07-30T10:09:30.706Z,99825.78
2022-07-30T10:12:02.622Z,99825.97
2022-07-30T10:14:42.721Z,99827.41
2022-07-30T10:17:17.575Z,99826.88
2022-07-30T10:20:09.863Z,99827.03
2022-07-30T10:23:07.780Z,99822.59
2022-07-30T10:25:48.980Z,99822.38
2022-07-30T10:28:39.351Z,99818.94
2022-07-30T10:31:48.334Z,99831.31
2022-07-30T10:34:00.730Z,99829.63
2022-07-30T10:36:31.118Z,99831.31
2022-07-30T10:39:02.539Z,99824.44
2022-07-30T10:41:47.643Z,99826.53
2022-07-30T10:44:43.026Z,99826.13
2022-07-30T10:47:16.624Z,99833.50
2022-07-30T10:50:06.102Z,99828.47
2022-07-30T10:52:46.723Z,99822.84
2022-07-30T10:55:16.345Z,99823.13
2022-07-30T10:58:06.389Z,99812.88
2022-07-30T11:00:58.710Z,99814.69
2022-07-30T11:03:44.546Z,99810.88
2022-07-30T11:06:29.510Z,99794.19
2022-07-30T11:08:58.509Z,99798.81
2022-07-30T11:12:01.497Z,99801.50
2022-07-30T11:15:06.752Z,99804.28
2022-07-30T11:18:02.528Z,99797.84
2022-07-30T11:20:32.687Z,99800.09
2022-07-30T11:23:41.341Z,99800.38
2022-07-30T11:26:14.114Z,99803.47
2022-07-30T11:28:49.422Z,99802.66
2022-07-30T11:31:55.006Z,99799.03
2022-07-30T11:34:31.132Z,99795.13
2022-07-30T11:37:19.172Z,99793.59
2022-07-30T11:40:15.307Z,99787.25
2022-07-30T11:42:45.359Z,99786.44
2022-07-30T11:45:33.996Z,99793.59
2022-07-30T11:48:02.696Z,99792.59
2022-07-30T11:50:34.050Z,99789.03
2022-07-30T11:53:06.283Z,99791.97
2022-07-30T11:55:39.067Z,99797.84
2022-07-30T11:58:09.872Z,99795.19
2022-07-30T12:00:41.590Z,99794.16
2022-07-30T12:03:12.533Z,99780.38
2022-07-30T12:05:41.661Z,99784.94
2022-07-30T12:08:35.263Z,99781.88
2022-07-30T12:11:02.713Z,99782.94
2022-07-30T12:13:44.952Z,99779.81
2022-07-30T12:16:17.967Z,99779.53
2022-07-30T12:18:48.518Z,99774.16
2022-07-30T12:21:18.055Z,99776.13
2022-07-30T12:23:56.817Z,99773.09
2022-07-30T12:26:29.818Z,99766.31
2022-07-30T12:29:02.092Z,99766.81
2022-07-30T12:31:31.313Z,99763.50
2022-07-30T12:34:01.447Z,99762.88
2022-07-30T12:36:33.074Z,99767.59
2022-07-30T12:39:02.972Z,99759.75
2022-07-30T12:41:47.374Z,99763.41
2022-07-30T12:44:42.346Z,99765.63
2022-07-30T12:47:22.197Z,99764.50
2022-07-30T12:49:53.355Z,99753.38
2022-07-30T12:52:27.959Z,99747.22
2022-07-30T12:55:03.726Z,99742.69
2022-07-30T12:57:55.090Z,99737.25
2022-07-30T13:00:25.495Z,99735.78
2022-07-30T13:02:55.364Z,99738.84
2022-07-30T13:05:45.773Z,99722.38
2022-07-30T13:08:15.213Z,99728.19
2022-07-30T13:10:59.213Z,99727.50
2022-07-30T13:13:31.217Z,99714.28
2022-07-30T13:16:02.035Z,99715.06
2022-07-30T13:18:32.779Z,99707.22
2022-07-30T13:21:03.646Z,99712.44
2022-07-30T13:23:32.677Z,99720.63
2022-07-30T13:26:01.857Z,99712.84
2022-07-30T13:28:34.973Z,99708.56
2022-07-30T13:31:04.301Z,99708.78
2022-07-30T13:33:33.272Z,99709.53
2022-07-30T13:36:02.675Z,99701.13
2022-07-30T13:38:32.264Z,99701.72
2022-07-30T13:41:02.980Z,99700.81
2022-07-30T13:43:33.925Z,99694.38
2022-07-30T13:46:05.416Z,99695.50
2022-07-30T13:48:35.937Z,99692.97
2022-07-30T13:51:07.978Z,99690.44
2022-07-30T13:53:37.295Z,99686.34
2022-07-30T13:56:12.451Z,99682.47
2022-07-30T13:58:43.750Z,99681.34
2022-07-30T14:01:15.826Z,99675.59
2022-07-30T14:03:50.838Z,99671.94
2022-07-30T14:06:19.780Z,99669.94
2022-07-30T14:08:49.086Z,99665.72
2022-07-30T14:11:18.167Z,99657.81
2022-07-30T14:13:48.343Z,99662.16
2022-07-30T14:16:43.637Z,99653.56
2022-07-30T14:19:09.316Z,99645.63
2022-07-30T14:21:52.800Z,99645.78
2022-07-30T14:24:22.299Z,99646.78
2022-07-30T14:26:57.769Z,99639.75
2022-07-30T14:29:29.306Z,99640.91
2022-07-30T14:31:59.010Z,99639.19
2022-07-30T14:34:29.134Z,99634.19
2022-07-30T14:36:58.054Z,99629.41
2022-07-30T14:39:26.951Z,99632.25
2022-07-30T14:41:56.243Z,99633.56
2022-07-30T14:44:25.239Z,99636.22
2022-07-30T14:46:56.127Z,99634.47
2022-07-30T14:49:25.380Z,99629.28
2022-07-30T14:51:54.800Z,99620.44
2022-07-30T14:54:23.868Z,99618.72
2022-07-30T14:56:58.008Z,99622.63
2022-07-30T14:59:31.438Z,99621.63
2022-07-30T15:02:02.393Z,99613.94
2022-07-30T15:04:31.937Z,99605.22
2022-07-30T15:07:01.345Z,99606.09
2022-07-30T15:09:30.303Z,99608.03
2022-07-30T15:12:09.423Z,99601.34
2022-07-30T15:14:40.263Z,99609.19
2022-07-30T15:17:11.846Z,99600.22
2022-07-30T15:19:49.343Z,99591.59
2022-07-30T15:22:20.156Z,99588.06
2022-07-30T15:24:49.667Z,99589.78
2022-07-30T15:27:22.436Z,99582.72
2022-07-30T15:29:57.425Z,99586.91
2022-07-30T15:32:28.263Z,99585.72
2022-07-30T15:34:58.958Z,99596.53
2022-07-30T15:37:27.694Z,99593.50
2022-07-30T15:39:56.570Z,99590.22
2022-07-30T15:42:27.415Z,99583.91
2022-07-30T15:45:16.106Z,99591.78
2022-07-30T15:47:48.353Z,99582.53
2022-07-30T15:50:18.064Z,99584.22
2022-07-30T15:52:49.427Z,99572.25
2022-07-30T15:55:18.216Z,99565.66
2022-07-30T15:57:48.620Z,99572.38
2022-07-30T16:00:17.950Z,99565.03
2022-07-30T16:02:50.912Z,99566.69
2022-07-30T16:05:19.760Z,99564.66
2022-07-30T16:07:48.868Z,99565.09
2022-07-30T16:10:18.013Z,99556.50
2022-07-30T16:12:47.068Z,99550.50
2022-07-30T16:15:16.993Z,99550.50
2022-07-30T16:17:47.827Z,99541.97
2022-07-30T16:20:16.977Z,99547.44
2022-07-30T16:22:45.724Z,99539.72
2022-07-30T16:25:15.112Z,99537.34
2022-07-30T16:27:44.199Z,99527.66
2022-07-30T16:30:14.309Z,99519.81
2022-07-30T16:32:43.923Z,99516.91
2022-07-30T16:35:14.592Z,99516.91
2022-07-30T16:37:44.172Z,99509.88
2022-07-30T16:40:14.257Z,99513.84
2022-07-30T16:42:43.396Z,99510.88
2022-07-30T16:45:13.378Z,99510.50
2022-07-30T16:47:43.242Z,99505.41
2022-07-30T16:50:15.157Z,99504.69
2022-07-30T16:52:44.188Z,99497.97
2022-07-30T16:55:13.366Z,99513.97
2022-07-30T16:57:42.876Z,99512.91
2022-07-30T17:00:14.938Z,99510.44
2022-07-30T17:02:44.372Z,99510.75
2022-07-30T17:05:14.960Z,99518.94
2022-07-30T17:07:44.155Z,99506.63
2022-07-30T17:10:13.865Z,99501.31
2022-07-30T17:12:52.591Z,99504.44
2022-07-30T17:15:31.849Z,99500.09
2022-07-30T17:18:02.749Z,99499.41
2022-07-30T17:20:34.457Z,99498.00
2022-07-30T17:23:04.049Z,99491.28
2022-07-30T17:25:33.493Z,99488.78
2022-07-30T17:28:02.405Z,99484.88
2022-07-30T17:30:32.122Z,99490.63
2022-07-30T17:33:01.404Z,99494.41
2022-07-30T17:35:30.834Z,99485.47
2022-07-30T17:38:05.060Z,99489.78
2022-07-30T17:40:34.295Z,99487.13
2022-07-30T17:43:06.193Z,99480.94
2022-07-30T17:45:39.552Z,99476.47
2022-07-30T17:48:09.467Z,99476.47
2022-07-30T17:50:38.690Z,99475.22
2022-07-30T17:53:10.138Z,99472.84
2022-07-30T17:55:39.470Z,99476.34
2022-07-30T17:58:09.733Z,99471.47
2022-07-30T18:00:38.923Z,99483.66
2022-07-30T18:03:08.241Z,99492.19
2022-07-30T18:05:39.126Z,99506.22
2022-07-30T18:08:12.809Z,99505.78
2022-07-30T18:10:42.195Z,99495.59
2022-07-30T18:13:26.035Z,99478.22
2022-07-30T18:15:57.243Z,99483.13
2022-07-30T18:18:26.295Z,99489.41
2022-07-30T18:20:55.282Z,99500.63
2022-07-30T18:23:25.953Z,99506.53
2022-07-30T18:26:03.984Z,99526.69
2022-07-30T18:28:33.591Z,99548.28
2022-07-30T18:31:02.466Z,99562.53
2022-07-30T18:33:31.245Z,99575.16
2022-07-30T18:36:08.217Z,99577.81
2022-07-30T18:38:43.368Z,99562.84
2022-07-30T18:41:14.235Z,99548.25
2022-07-30T18:43:47.480Z,99538.72
2022-07-30T18:46:17.702Z,99527.38
2022-07-30T18:48:48.798Z,99526.00
2022-07-30T18:51:18.858Z,99523.88
2022-07-30T18:53:50.005Z,99513.78
2022-07-30T18:56:19.633Z,99517.97
2022-07-30T18:58:48.951Z,99528.59
2022-07-30T19:01:19.810Z,99526.53
2022-07-30T19:03:48.792Z,99528.06
2022-07-30T19:06:17.713Z,99519.97
2022-07-30T19:08:52.042Z,99521.91
2022-07-30T19:11:20.943Z,99519.38
2022-07-30T19:13:50.469Z,99524.81
2022-07-30T19:16:20.843Z,99524.25
2022-07-30T19:18:49.695Z,99522.59
2022-07-30T19:21:18.631Z,99512.06
2022-07-30T19:23:49.669Z,99507.59
2022-07-30T19:26:20.091Z,99493.59
2022-07-30T19:28:48.945Z,99491.78
2022-07-30T19:31:17.715Z,99484.88
2022-07-30T19:33:46.652Z,99484.88
2022-07-30T19:36:19.202Z,99484.88
2022-07-30T19:38:49.104Z,99478.72
2022-07-30T19:41:19.748Z,99465.56
2022-07-30T19:43:57.644Z,99455.06
2022-07-30T19:46:28.046Z,99458.56
2022-07-30T19:48:59.617Z,99458.56
2022-07-30T19:52:22.765Z,99450.59
2022-07-30T19:54:19.038Z,99441.78
2022-07-30T19:56:50.539Z,99436.28
2022-07-30T19:59:45.774Z,99435.34
2022-07-30T20:02:09.187Z,99430.28
2022-07-30T20:04:41.617Z,99430.28
2022-07-30T20:07:13.499Z,99418.81
2022-07-30T20:09:42.993Z,99417.13
2022-07-30T20:12:15.955Z,99407.34
2022-07-30T20:14:46.398Z,99407.34
2022-07-30T20:17:19.009Z,99405.66
2022-07-30T20:19:49.424Z,99410.81
2022-07-30T20:22:21.809Z,99411.00
2022-07-30T20:24:56.578Z,99422.03
2022-07-30T20:27:36.188Z,99405.94
2022-07-30T20:30:08.146Z,99402.56
2022-07-30T20:32:37.709Z,99403.69
2022-07-30T20:35:11.151Z,99419.94
2022-07-30T20:37:55.435Z,99422.59
2022-07-30T20:40:56.630Z,99417.13
2022-07-30T20:43:27.948Z,99414.75
2022-07-30T20:45:57.768Z,99420.31
2022-07-30T20:48:31.573Z,99423.28
2022-07-30T20:51:02.479Z,99411.94
2022-07-30T20:53:36.962Z,99416.25
2022-07-30T20:56:07.326Z,99417.97
2022-07-30T20:58:46.087Z,99420.75
2022-07-30T21:01:18.369Z,99421.16
2022-07-30T21:03:48.947Z,99423.13
2022-07-30T21:06:18.311Z,99435.28
2022-07-30T21:08:47.738Z,99445.38
2022-07-30T21:11:16.432Z,99454.03
2022-07-30T21:13:47.211Z,99450.69
2022-07-30T21:16:16.831Z,99449.28
2022-07-30T21:21:47.995Z,99446.47
2022-07-30T21:27:09.811Z,99444.81
2022-07-30T21:29:43.868Z,99445.09
2022-07-30T21:32:13.065Z,99438.09
2022-07-30T21:34:42.676Z,99431.66
2022-07-30T21:37:15.750Z,99423.00
2022-07-30T21:39:44.745Z,99429.41
2022-07-30T21:42:14.098Z,99433.63
2022-07-30T21:44:44.197Z,99421.16
2022-07-30T21:47:15.368Z,99419.06
2022-07-30T21:49:45.077Z,99414.59
2022-07-30T21:52:15.802Z,99414.16
2022-07-30T21:54:50.408Z,99406.19
2022-07-30T21:57:23.077Z,99403.41
2022-07-30T21:59:55.110Z,99409.81
2022-07-30T22:02:25.377Z,99407.84
2022-07-30T22:04:56.646Z,99398.38
2022-07-30T22:07:28.042Z,99389.97
2022-07-30T22:09:57.348Z,99389.81
2022-07-30T22:12:29.034Z,99387.44
2022-07-30T22:15:02.490Z,99372.63
2022-07-30T22:17:37.415Z,99374.56
2022-07-30T22:20:27.781Z,99365.88
2022-07-30T22:22:57.227Z,99356.38
2022-07-30T22:25:43.646Z,99358.91
2022-07-30T22:28:15.066Z,99349.38
2022-07-30T22:30:47.788Z,99334.97
2022-07-30T22:33:22.857Z,99335.66
2022-07-30T22:35:56.719Z,99330.09
2022-07-30T22:38:27.458Z,99317.47
2022-07-30T22:40:57.154Z,99321.00
2022-07-30T22:43:33.285Z,99323.50
2022-07-30T22:46:14.961Z,99316.22
2022-07-30T22:48:59.816Z,99318.91
2022-07-30T22:54:21.387Z,99308.81
2022-07-30T22:56:54.887Z,99308.38
2022-07-30T22:59:55.862Z,99304.06
2022-07-30T23:02:17.859Z,99284.06
2022-07-30T23:04:46.797Z,99281.13
2022-07-30T23:07:18.894Z,99283.63
2022-07-30T23:09:51.558Z,99295.09
2022-07-30T23:12:23.716Z,99297.06
2022-07-30T23:12:27.126Z,99451.81
2022-07-30T23:12:27.228Z,99448.47
2022-07-30T23:12:30.621Z,99316.50
2022-07-30T23:14:57.631Z,99293.56
2022-07-30T23:17:38.814Z,99291.19
2022-07-30T23:20:11.280Z,99290.03
2022-07-30T23:22:40.224Z,99287.66
2022-07-30T23:25:11.060Z,99281.78
2022-07-30T23:27:40.650Z,99281.09
2022-07-30T23:30:12.925Z,99287.22
2022-07-30T23:32:43.496Z,99280.81
2022-07-30T23:35:20.595Z,99280.53
2022-07-30T23:37:50.561Z,99284.59
2022-07-30T23:40:20.105Z,99279.50
2022-07-30T23:42:51.096Z,99275.72
2022-07-30T23:45:20.450Z,99275.03
2022-07-30T23:48:01.171Z,99274.59
2022-07-30T23:50:31.252Z,99267.38
2022-07-30T23:53:00.618Z,99266.78
2022-07-30T23:55:34.570Z,99257.97
2022-07-30T23:58:04.130Z,99258.81
